IBS29A LEBB-LESO
Flight info
| Callsign | IBS29A |
|---|---|
| Flight time | 0h 16m |
| Altitude | 14000 |
| Route | SSN |
| Aircraft | A320/M-SDE3FGHIRWY/LB1 |
Departure
| Time | 2026-04-29 21:52 |
|---|---|
| Airport | Bilbao Airport (LEBB) |
Arrival
| Time | 2026-04-29 22:08 |
|---|---|
| Airport | San Sebastián Airport (LESO) |
| Time | Latitude | Longitude | Altitude | Speed | Heading |
|---|---|---|---|---|---|
| 2026-04-29 21:26 | 43.30473 | -2.90736 | 153 ft | 0 kts | 26° |
| 2026-04-29 21:43 | 43.30453 | -2.90749 | 151 ft | 4 kts | 22° |
| 2026-04-29 21:43 | 43.30427 | -2.90761 | 149 ft | 4 kts | 12° |
| 2026-04-29 21:43 | 43.30401 | -2.90764 | 147 ft | 4 kts | 335° |
| 2026-04-29 21:44 | 43.30391 | -2.90754 | 147 ft | 1 kts | 297° |
| 2026-04-29 21:46 | 43.30394 | -2.90762 | 147 ft | 3 kts | 298° |
| 2026-04-29 21:46 | 43.30406 | -2.90805 | 146 ft | 6 kts | 282° |
| 2026-04-29 21:46 | 43.30406 | -2.90874 | 144 ft | 8 kts | 268° |
| 2026-04-29 21:47 | 43.30396 | -2.90964 | 141 ft | 11 kts | 241° |
| 2026-04-29 21:47 | 43.30323 | -2.91029 | 134 ft | 14 kts | 221° |
| 2026-04-29 21:47 | 43.30336 | -2.91172 | 133 ft | 17 kts | 296° |
| 2026-04-29 21:47 | 43.30391 | -2.91320 | 135 ft | 18 kts | 297° |
| 2026-04-29 21:48 | 43.30452 | -2.91484 | 133 ft | 21 kts | 297° |
| 2026-04-29 21:48 | 43.30523 | -2.91678 | 131 ft | 25 kts | 296° |
| 2026-04-29 21:48 | 43.30609 | -2.91912 | 127 ft | 29 kts | 296° |
| 2026-04-29 21:48 | 43.30704 | -2.92175 | 127 ft | 32 kts | 296° |
| 2026-04-29 21:49 | 43.30769 | -2.92354 | 129 ft | 18 kts | 296° |
| 2026-04-29 21:49 | 43.30799 | -2.92440 | 127 ft | 6 kts | 285° |
| 2026-04-29 21:49 | 43.30799 | -2.92461 | 128 ft | 0 kts | 266° |
| 2026-04-29 21:50 | 43.30799 | -2.92462 | 128 ft | 1 kts | 265° |
| 2026-04-29 21:50 | 43.30784 | -2.92495 | 131 ft | 7 kts | 218° |
| 2026-04-29 21:50 | 43.30715 | -2.92488 | 127 ft | 12 kts | 163° |
| 2026-04-29 21:50 | 43.30645 | -2.92467 | 126 ft | 7 kts | 166° |
| 2026-04-29 21:51 | 43.30609 | -2.92417 | 131 ft | 8 kts | 118° |
| 2026-04-29 21:51 | 43.30603 | -2.92401 | 126 ft | 0 kts | 116° |
| 2026-04-29 21:52 | 43.30571 | -2.92312 | 127 ft | 45 kts | 117° |
| 2026-04-29 21:52 | 43.30301 | -2.91582 | 132 ft | 122 kts | 116° |
| 2026-04-29 21:52 | 43.29843 | -2.90330 | 422 ft | 156 kts | 118° |
| 2026-04-29 21:52 | 43.29362 | -2.88987 | 1355 ft | 157 kts | 118° |
| 2026-04-29 21:53 | 43.28840 | -2.87564 | 2056 ft | 177 kts | 120° |
| 2026-04-29 21:53 | 43.28236 | -2.85948 | 2618 ft | 202 kts | 122° |
| 2026-04-29 21:53 | 43.27585 | -2.84192 | 3581 ft | 209 kts | 122° |
| 2026-04-29 21:53 | 43.26918 | -2.82376 | 4575 ft | 215 kts | 122° |
| 2026-04-29 21:54 | 43.26232 | -2.80522 | 5540 ft | 219 kts | 122° |
| 2026-04-29 21:54 | 43.25535 | -2.78634 | 6547 ft | 224 kts | 122° |
| 2026-04-29 21:54 | 43.24842 | -2.76737 | 7439 ft | 227 kts | 119° |
| 2026-04-29 21:54 | 43.24431 | -2.74586 | 8318 ft | 241 kts | 98° |
| 2026-04-29 21:55 | 43.24595 | -2.72267 | 9289 ft | 250 kts | 76° |
| 2026-04-29 21:55 | 43.25376 | -2.70119 | 10248 ft | 257 kts | 54° |
| 2026-04-29 21:55 | 43.26694 | -2.68424 | 11135 ft | 263 kts | 40° |
| 2026-04-29 21:55 | 43.28095 | -2.66800 | 12108 ft | 264 kts | 43° |
| 2026-04-29 21:56 | 43.29378 | -2.64982 | 12988 ft | 267 kts | 58° |
| 2026-04-29 21:56 | 43.30213 | -2.62696 | 13728 ft | 275 kts | 75° |
| 2026-04-29 21:56 | 43.30534 | -2.59983 | 13895 ft | 304 kts | 92° |
| 2026-04-29 21:56 | 43.30539 | -2.56913 | 13933 ft | 339 kts | 92° |
| 2026-04-29 21:57 | 43.30561 | -2.53511 | 13934 ft | 372 kts | 92° |
| 2026-04-29 21:57 | 43.30604 | -2.49825 | 13929 ft | 400 kts | 91° |
| 2026-04-29 21:57 | 43.30666 | -2.45904 | 13933 ft | 417 kts | 91° |
| 2026-04-29 21:57 | 43.30740 | -2.41902 | 13933 ft | 421 kts | 91° |
| 2026-04-29 21:58 | 43.30816 | -2.37932 | 13935 ft | 422 kts | 91° |
| 2026-04-29 21:58 | 43.30887 | -2.33914 | 13931 ft | 422 kts | 91° |
| 2026-04-29 21:58 | 43.30949 | -2.29887 | 13933 ft | 422 kts | 91° |
| 2026-04-29 21:58 | 43.31004 | -2.25864 | 13932 ft | 422 kts | 91° |
| 2026-04-29 21:59 | 43.31035 | -2.21840 | 13932 ft | 422 kts | 92° |
| 2026-04-29 21:59 | 43.31047 | -2.17810 | 13934 ft | 422 kts | 92° |
| 2026-04-29 21:59 | 43.31051 | -2.13778 | 13663 ft | 422 kts | 92° |
| 2026-04-29 21:59 | 43.31054 | -2.09745 | 12623 ft | 422 kts | 92° |
| 2026-04-29 22:00 | 43.31060 | -2.05811 | 11509 ft | 404 kts | 92° |
| 2026-04-29 22:00 | 43.31073 | -2.02049 | 10796 ft | 380 kts | 91° |
| 2026-04-29 22:00 | 43.31501 | -1.98604 | 10532 ft | 354 kts | 72° |
| 2026-04-29 22:00 | 43.32604 | -1.95730 | 10398 ft | 330 kts | 55° |
| 2026-04-29 22:01 | 43.34154 | -1.93546 | 10093 ft | 313 kts | 37° |
| 2026-04-29 22:01 | 43.36039 | -1.92151 | 9863 ft | 307 kts | 19° |
| 2026-04-29 22:01 | 43.38120 | -1.91584 | 9740 ft | 305 kts | 1° |
| 2026-04-29 22:01 | 43.40226 | -1.91851 | 9595 ft | 303 kts | 345° |
| 2026-04-29 22:02 | 43.42247 | -1.92556 | 9191 ft | 306 kts | 352° |
| 2026-04-29 22:02 | 43.44336 | -1.92198 | 8360 ft | 305 kts | 25° |
| 2026-04-29 22:02 | 43.45947 | -1.90432 | 7667 ft | 294 kts | 58° |
| 2026-04-29 22:02 | 43.46644 | -1.87878 | 6981 ft | 282 kts | 87° |
| 2026-04-29 22:03 | 43.46776 | -1.85198 | 6204 ft | 281 kts | 89° |
| 2026-04-29 22:03 | 43.46998 | -1.82531 | 5462 ft | 280 kts | 86° |
| 2026-04-29 22:03 | 43.47287 | -1.79892 | 4720 ft | 277 kts | 86° |
| 2026-04-29 22:03 | 43.47599 | -1.77292 | 4114 ft | 270 kts | 86° |
| 2026-04-29 22:04 | 43.47903 | -1.74840 | 3864 ft | 249 kts | 86° |
| 2026-04-29 22:04 | 43.48161 | -1.72593 | 3701 ft | 225 kts | 93° |
| 2026-04-29 22:04 | 43.47888 | -1.70670 | 3586 ft | 192 kts | 125° |
| 2026-04-29 22:04 | 43.47033 | -1.69379 | 3352 ft | 179 kts | 152° |
| 2026-04-29 22:05 | 43.45858 | -1.68857 | 2799 ft | 183 kts | 178° |
| 2026-04-29 22:05 | 43.44639 | -1.69234 | 2499 ft | 175 kts | 205° |
| 2026-04-29 22:05 | 43.42973 | -1.71019 | 2405 ft | 138 kts | 214° |
| 2026-04-29 22:06 | 43.42258 | -1.71869 | 2138 ft | 134 kts | 214° |
| 2026-04-29 22:06 | 43.41533 | -1.72677 | 1851 ft | 132 kts | 213° |
| 2026-04-29 22:06 | 43.40831 | -1.73443 | 1644 ft | 127 kts | 213° |
| 2026-04-29 22:06 | 43.40118 | -1.74145 | 1374 ft | 125 kts | 210° |
| 2026-04-29 22:07 | 43.39412 | -1.74859 | 1028 ft | 128 kts | 216° |
| 2026-04-29 22:07 | 43.38725 | -1.75655 | 737 ft | 129 kts | 219° |
| 2026-04-29 22:07 | 43.38019 | -1.76436 | 503 ft | 131 kts | 219° |
| 2026-04-29 22:07 | 43.37309 | -1.77227 | 330 ft | 132 kts | 218° |
| 2026-04-29 22:08 | 43.36603 | -1.78002 | 161 ft | 131 kts | 218° |
| 2026-04-29 22:08 | 43.35899 | -1.78784 | 39 ft | 130 kts | 217° |
| 2026-04-29 22:08 | 43.35299 | -1.79433 | 23 ft | 73 kts | 219° |
| 2026-04-29 22:08 | 43.35106 | -1.79656 | 21 ft | 17 kts | 228° |
| 2026-04-29 22:09 | 43.35060 | -1.79740 | 21 ft | 9 kts | 173° |
| 2026-04-29 22:09 | 43.35074 | -1.79691 | 21 ft | 7 kts | 36° |
| 2026-04-29 22:09 | 43.35110 | -1.79654 | 21 ft | 7 kts | 37° |
| 2026-04-29 22:09 | 43.35160 | -1.79602 | 23 ft | 10 kts | 38° |
| 2026-04-29 22:10 | 43.35209 | -1.79548 | 24 ft | 8 kts | 39° |
| 2026-04-29 22:10 | 43.35252 | -1.79499 | 26 ft | 9 kts | 39° |
| 2026-04-29 22:10 | 43.35326 | -1.79414 | 25 ft | 19 kts | 39° |
| 2026-04-29 22:10 | 43.35401 | -1.79335 | 23 ft | 9 kts | 38° |
| 2026-04-29 22:11 | 43.35462 | -1.79268 | 22 ft | 11 kts | 39° |
| 2026-04-29 22:11 | 43.35529 | -1.79266 | 20 ft | 8 kts | 323° |
| 2026-04-29 22:11 | 43.35585 | -1.79248 | 20 ft | 6 kts | 40° |
| 2026-04-29 22:11 | 43.35622 | -1.79201 | 20 ft | 8 kts | 41° |
| 2026-04-29 22:12 | 43.35651 | -1.79166 | 22 ft | 5 kts | 41° |
| 2026-04-29 22:12 | 43.35668 | -1.79165 | 21 ft | 2 kts | 341° |
| 2026-04-29 22:12 | 43.35681 | -1.79180 | 21 ft | 2 kts | 313° |
| 2026-04-29 22:12 | 43.35685 | -1.79186 | 21 ft | 0 kts | 311° |